Archival Weather

Václav Havel Intl Apt

Prague, Czechia (LKPR)

Report from: Friday, May 26, 2023 1:30 AM CEST
Current time: Friday, July 19, 2024 4:53 AM CEST

Current weather – Weather history – Daily summaries
Weather forecast

Temperature10.0°C (50.0°F)
Wind chill8.2°C (46.7°F)
Dew point6.0°C (42.8°F)
Winds 7 kts (3.6 m/s, 8.1 mph) North-Northwest (330°)
Clouds Sky clear
Altimeter30.24 in.Hg (1024 mB)
Relative humidity76 %
Density altitude-825 ft. (-252 m)
Remarks Ceiling and visibility OK
No significant changes expected in the next two hours
Flight conditions Visual Meteorological Conditions
Raw dataLKPR 252330Z 33007KT CAVOK 10/06 Q1024 NOSIG
An error has occurred. This application may no longer respond until reloaded. Reload 🗙